MMDO/DGO METAR and TAF weather

Enter ICAO airport designator
Station Type Date Time Source
MMDO METAR 2019/04/20 17:40 UTC NOAA

MMDO 201740Z 09005KT 12SM SCT200 24/M09 A3027 RMK SLP098 57012 968 8/001


Station Type Date Time Source
MMDO Decoded METAR 2019/04/20 17:40 UTC NOAA

Durango Airport, Mexico (MMDO) 24-08N 104-32W
Apr 20, 2019 - 01:40 PM EDT / 2019.04.20 1740 UTC
Wind: from the E (090 degrees) at 6 MPH (5 KT):0
Visibility: 12 mile(s):0
Sky conditions: partly cloudy
Temperature: 75 F (24 C)
Dew Point: 15 F (-9 C)
Relative Humidity: 10%
Pressure (altimeter): 30.27 in. Hg (1025 hPa)
Pressure tendency: 0.04 inches (1.2 hPa) lower than three hours ago
ob: MMDO 201740Z 09005KT 12SM SCT200 24/M09 A3027 RMK SLP098 57012 968 8/001
cycle: 17

Station Type Date Time Source
MMDO TAF 2019/04/20 18:10 UTC NOAA

TAF MMDO 201603Z 2018/2118 24014KT P6SM SCT080 BKN250
FM210600 28005KT P6SM SCT250
FM211800 23012KT P6SM BKN250

Example: see airport list